Clear Creek, WV (25044)

6:56 PM EDT on August 31, 2016 (GMT -0400)
Fairdale | | Change Station

Elev 1938 ft 37.74 °N, 81.35 °W | Updated 12 seconds ago

Partly Cloudy
Partly Cloudy
81.5 °F
Feels Like 86 °F
N
0.0
Wind Variable Wind from North
Gusts 0.0 mph

Today
High -- | Low -- °F
--% Chance of Precip.
Yesterday
High -- | Low -- °F
Precip. -- in
Pressure 29.90 in
Visibility 10.0 miles
Clouds Few 4100 ft
Heat Index 86 °F
Dew Point 71 °F
Humidity 70%
Rainfall 0.04 in
Snow Depth Not available.
6:54 AM 7:55 PM
Waning Crescent, 0% visible
METAR KBKW 312251Z AUTO 35004KT 10SM FEW041 27/19 A3001 RMK AO2 SLP125 T02720189
Pressure 29.90 in
Visibility 10.0 miles
Clouds Few 4100 ft
Heat Index 86 °F
Dew Point 71 °F
Humidity 70%
Rainfall 0.04 in
Snow Depth Not available.
6:54 AM 7:55 PM
Waning Crescent, 0% visible
METAR KBKW 312251Z AUTO 35004KT 10SM FEW041 27/19 A3001 RMK AO2 SLP125 T02720189

10-Day Weather Forecast

Almanac

Astronomy

Aug. 31, 2016 Rise Set
Actual Time
Civil Twilight
Nautical Twilight
Astronomical Twilight
Moon
Length of Visible Light
Length of Day
Tomorrow will be .
, % of the Moon is Illuminated

Today's Extremes

State Highs State Lows

Community

WunderPhotos

Upload Photos

1,936,204 photos uploaded!

WunderBlog® & News

Nearby

Air Quality

  Air Quality AQ Index Pollutant
Not available.

Snow Depth

Station Depth Elevation

Earthquake Activity

City Distance Mag. Time & Date
Minimum magnitude displayed is 2.5.

Coastal Water Temperatures

Place Temperature

Stations

Nearby Weather Stations

Station Location Temp. Windchill Dew Point Humidity Wind Precip. Elev Updated Type
                   

Watches & Warnings

There are currently no watches in effect.